sensor_id;sensor_type;location;lat;lon;timestamp;pressure;altitude;pressure_sealevel;temperature;humidity
55590;BME280;41452;42.780;23.116;2023-05-08T00:01:22;94552.63;;;9.88;89.29
55590;BME280;41452;42.780;23.116;2023-05-08T00:03:48;94540.69;;;9.74;89.61
55590;BME280;41452;42.780;23.116;2023-05-08T00:06:13;94553.13;;;9.78;89.92
55590;BME280;41452;42.780;23.116;2023-05-08T00:08:38;94542.78;;;9.65;89.90
55590;BME280;41452;42.780;23.116;2023-05-08T00:11:04;94562.44;;;9.74;89.92
55590;BME280;41452;42.780;23.116;2023-05-08T00:13:29;94558.78;;;9.75;89.83
55590;BME280;41452;42.780;23.116;2023-05-08T00:15:55;94538.84;;;9.56;89.50
55590;BME280;41452;42.780;23.116;2023-05-08T00:18:20;94552.56;;;9.58;89.55
55590;BME280;41452;42.780;23.116;2023-05-08T00:20:46;94567.47;;;9.57;90.41
55590;BME280;41452;42.780;23.116;2023-05-08T00:23:11;94567.56;;;9.50;90.25
55590;BME280;41452;42.780;23.116;2023-05-08T00:25:36;94556.75;;;9.40;90.09
55590;BME280;41452;42.780;23.116;2023-05-08T00:28:02;94550.78;;;9.33;90.75
55590;BME280;41452;42.780;23.116;2023-05-08T00:30:27;94564.78;;;9.45;90.40
55590;BME280;41452;42.780;23.116;2023-05-08T00:32:53;94574.81;;;9.48;90.29
55590;BME280;41452;42.780;23.116;2023-05-08T00:35:18;94540.00;;;9.23;91.12
55590;BME280;41452;42.780;23.116;2023-05-08T00:37:44;94569.28;;;9.38;90.78
55590;BME280;41452;42.780;23.116;2023-05-08T00:40:10;94556.34;;;9.18;91.17
55590;BME280;41452;42.780;23.116;2023-05-08T00:42:36;94541.47;;;9.19;91.19
55590;BME280;41452;42.780;23.116;2023-05-08T00:45:02;94576.13;;;9.39;90.71
55590;BME280;41452;42.780;23.116;2023-05-08T00:47:28;94548.50;;;9.18;90.96
55590;BME280;41452;42.780;23.116;2023-05-08T00:49:54;94569.88;;;9.40;90.68
55590;BME280;41452;42.780;23.116;2023-05-08T00:52:20;94572.06;;;9.43;90.68
55590;BME280;41452;42.780;23.116;2023-05-08T00:54:46;94580.19;;;9.35;90.75
55590;BME280;41452;42.780;23.116;2023-05-08T00:57:12;94576.78;;;9.35;90.82
55590;BME280;41452;42.780;23.116;2023-05-08T00:59:39;94578.59;;;9.34;91.00
55590;BME280;41452;42.780;23.116;2023-05-08T01:02:06;94587.75;;;9.25;90.98
55590;BME280;41452;42.780;23.116;2023-05-08T01:04:33;94583.44;;;9.12;91.80
55590;BME280;41452;42.780;23.116;2023-05-08T01:07:00;94575.38;;;9.13;91.58
55590;BME280;41452;42.780;23.116;2023-05-08T01:09:25;94561.88;;;9.10;91.13
55590;BME280;41452;42.780;23.116;2023-05-08T01:12:19;94559.84;;;9.12;90.74
55590;BME280;41452;42.780;23.116;2023-05-08T01:15:05;94583.97;;;9.21;90.81
55590;BME280;41452;42.780;23.116;2023-05-08T01:18:01;94589.25;;;9.14;91.14
55590;BME280;41452;42.780;23.116;2023-05-08T01:26:06;94582.84;;;8.85;92.84
55590;BME280;41452;42.780;23.116;2023-05-08T01:31:31;94563.31;;;8.81;92.07
55590;BME280;41452;42.780;23.116;2023-05-08T01:34:05;94574.94;;;8.91;92.28
55590;BME280;41452;42.780;23.116;2023-05-08T01:36:57;94563.13;;;8.82;92.32
55590;BME280;41452;42.780;23.116;2023-05-08T01:39:50;94573.06;;;8.99;92.05
55590;BME280;41452;42.780;23.116;2023-05-08T01:45:09;94568.72;;;8.86;92.67
55590;BME280;41452;42.780;23.116;2023-05-08T01:47:36;94558.09;;;8.81;92.57
55590;BME280;41452;42.780;23.116;2023-05-08T01:50:06;94577.81;;;8.83;92.42
55590;BME280;41452;42.780;23.116;2023-05-08T01:52:47;94572.59;;;8.83;93.26
55590;BME280;41452;42.780;23.116;2023-05-08T01:55:25;94544.66;;;8.70;92.98
55590;BME280;41452;42.780;23.116;2023-05-08T01:57:57;94568.16;;;8.84;92.55
55590;BME280;41452;42.780;23.116;2023-05-08T02:00:24;94570.97;;;8.82;92.93
55590;BME280;41452;42.780;23.116;2023-05-08T02:02:51;94573.00;;;8.80;92.96
55590;BME280;41452;42.780;23.116;2023-05-08T02:05:20;94568.56;;;8.81;93.05
55590;BME280;41452;42.780;23.116;2023-05-08T02:07:48;94557.75;;;8.70;93.21
55590;BME280;41452;42.780;23.116;2023-05-08T02:10:14;94571.75;;;8.83;93.50
55590;BME280;41452;42.780;23.116;2023-05-08T02:12:42;94575.59;;;8.87;92.98
55590;BME280;41452;42.780;23.116;2023-05-08T02:15:11;94577.38;;;8.86;93.02
55590;BME280;41452;42.780;23.116;2023-05-08T02:17:39;94572.78;;;8.82;93.44
55590;BME280;41452;42.780;23.116;2023-05-08T02:20:06;94568.19;;;8.77;92.87
55590;BME280;41452;42.780;23.116;2023-05-08T02:22:33;94575.25;;;8.77;93.14
55590;BME280;41452;42.780;23.116;2023-05-08T02:24:59;94575.84;;;8.79;93.33
55590;BME280;41452;42.780;23.116;2023-05-08T02:27:27;94566.22;;;8.72;93.29
55590;BME280;41452;42.780;23.116;2023-05-08T02:29:54;94576.25;;;8.75;93.64
55590;BME280;41452;42.780;23.116;2023-05-08T02:32:20;94579.47;;;8.78;93.84
55590;BME280;41452;42.780;23.116;2023-05-08T02:34:48;94586.50;;;8.77;93.78
55590;BME280;41452;42.780;23.116;2023-05-08T02:37:17;94579.47;;;8.78;94.16
55590;BME280;41452;42.780;23.116;2023-05-08T02:39:44;94580.09;;;8.73;94.44
55590;BME280;41452;42.780;23.116;2023-05-08T02:42:11;94559.03;;;8.61;94.87
55590;BME280;41452;42.780;23.116;2023-05-08T02:44:36;94585.56;;;8.71;94.47
55590;BME280;41452;42.780;23.116;2023-05-08T02:47:16;94590.59;;;8.73;94.86
55590;BME280;41452;42.780;23.116;2023-05-08T02:50:18;94582.69;;;8.80;94.88
55590;BME280;41452;42.780;23.116;2023-05-08T02:52:44;94573.84;;;8.74;94.93
55590;BME280;41452;42.780;23.116;2023-05-08T02:55:26;94572.13;;;8.61;95.95
55590;BME280;41452;42.780;23.116;2023-05-08T02:58:33;94577.38;;;8.61;95.99
55590;BME280;41452;42.780;23.116;2023-05-08T03:00:55;94574.72;;;8.68;96.17
55590;BME280;41452;42.780;23.116;2023-05-08T03:03:25;94574.13;;;8.66;95.73
55590;BME280;41452;42.780;23.116;2023-05-08T03:05:53;94582.97;;;8.65;95.64
55590;BME280;41452;42.780;23.116;2023-05-08T03:08:27;94562.94;;;8.52;95.86
55590;BME280;41452;42.780;23.116;2023-05-08T03:10:56;94576.03;;;8.52;96.23
55590;BME280;41452;42.780;23.116;2023-05-08T03:13:24;94572.22;;;8.48;96.26
55590;BME280;41452;42.780;23.116;2023-05-08T03:15:54;94582.44;;;8.56;97.40
55590;BME280;41452;42.780;23.116;2023-05-08T03:18:25;94560.59;;;8.37;97.04
55590;BME280;41452;42.780;23.116;2023-05-08T03:20:53;94573.59;;;8.50;97.12
55590;BME280;41452;42.780;23.116;2023-05-08T03:23:22;94544.72;;;8.32;97.38
55590;BME280;41452;42.780;23.116;2023-05-08T03:25:50;94568.53;;;8.55;97.42
55590;BME280;41452;42.780;23.116;2023-05-08T03:28:17;94573.56;;;8.57;97.42
55590;BME280;41452;42.780;23.116;2023-05-08T03:30:43;94582.59;;;8.61;97.16
55590;BME280;41452;42.780;23.116;2023-05-08T03:33:11;94586.44;;;8.59;97.27
55590;BME280;41452;42.780;23.116;2023-05-08T03:35:38;94575.78;;;8.60;97.79
55590;BME280;41452;42.780;23.116;2023-05-08T03:38:04;94570.38;;;8.55;98.14
55590;BME280;41452;42.780;23.116;2023-05-08T03:40:32;94556.94;;;8.45;98.06
55590;BME280;41452;42.780;23.116;2023-05-08T03:43:01;94586.03;;;8.62;98.69
55590;BME280;41452;42.780;23.116;2023-05-08T03:45:29;94586.78;;;8.69;99.16
55590;BME280;41452;42.780;23.116;2023-05-08T03:47:55;94589.88;;;8.59;99.74
55590;BME280;41452;42.780;23.116;2023-05-08T03:50:22;94568.81;;;8.41;100.00
55590;BME280;41452;42.780;23.116;2023-05-08T03:52:49;94579.19;;;8.61;100.00
55590;BME280;41452;42.780;23.116;2023-05-08T03:55:14;94592.03;;;8.69;100.00
55590;BME280;41452;42.780;23.116;2023-05-08T03:57:48;94575.19;;;8.58;100.00
55590;BME280;41452;42.780;23.116;2023-05-08T04:00:23;94552.72;;;8.44;100.00
55590;BME280;41452;42.780;23.116;2023-05-08T04:03:17;94595.22;;;8.71;100.00
55590;BME280;41452;42.780;23.116;2023-05-08T04:08:43;94591.22;;;8.68;100.00
55590;BME280;41452;42.780;23.116;2023-05-08T04:11:37;94598.66;;;8.71;100.00
55590;BME280;41452;42.780;23.116;2023-05-08T04:14:07;94551.66;;;8.51;100.00
55590;BME280;41452;42.780;23.116;2023-05-08T04:16:38;94602.59;;;8.81;100.00
55590;BME280;41452;42.780;23.116;2023-05-08T04:19:09;94603.94;;;8.90;100.00
55590;BME280;41452;42.780;23.116;2023-05-08T04:21:38;94572.59;;;8.83;100.00
55590;BME280;41452;42.780;23.116;2023-05-08T04:24:07;94568.31;;;8.89;100.00
55590;BME280;41452;42.780;23.116;2023-05-08T04:26:34;94582.91;;;9.03;100.00
55590;BME280;41452;42.780;23.116;2023-05-08T04:29:00;94597.66;;;9.23;100.00
55590;BME280;41452;42.780;23.116;2023-05-08T04:31:26;94597.97;;;9.33;100.00
55590;BME280;41452;42.780;23.116;2023-05-08T04:33:53;94581.03;;;9.29;100.00
55590;BME280;41452;42.780;23.116;2023-05-08T04:36:19;94594.56;;;9.51;100.00
55590;BME280;41452;42.780;23.116;2023-05-08T04:38:44;94592.88;;;9.57;100.00
55590;BME280;41452;42.780;23.116;2023-05-08T04:41:09;94588.44;;;9.57;100.00
55590;BME280;41452;42.780;23.116;2023-05-08T04:43:35;94578.53;;;9.59;100.00
55590;BME280;41452;42.780;23.116;2023-05-08T04:46:02;94594.50;;;9.76;100.00
55590;BME280;41452;42.780;23.116;2023-05-08T04:48:29;94590.91;;;9.89;100.00
55590;BME280;41452;42.780;23.116;2023-05-08T04:50:58;94581.38;;;9.95;100.00
55590;BME280;41452;42.780;23.116;2023-05-08T04:53:23;94590.41;;;9.99;100.00
55590;BME280;41452;42.780;23.116;2023-05-08T04:55:49;94572.50;;;9.96;100.00
55590;BME280;41452;42.780;23.116;2023-05-08T04:58:14;94582.72;;;10.16;100.00
55590;BME280;41452;42.780;23.116;2023-05-08T05:00:39;94569.97;;;10.19;100.00
55590;BME280;41452;42.780;23.116;2023-05-08T05:03:05;94576.59;;;10.40;100.00
55590;BME280;41452;42.780;23.116;2023-05-08T05:05:30;94579.34;;;10.45;100.00
55590;BME280;41452;42.780;23.116;2023-05-08T05:07:55;94568.19;;;10.50;100.00
55590;BME280;41452;42.780;23.116;2023-05-08T05:10:21;94565.44;;;10.57;100.00
55590;BME280;41452;42.780;23.116;2023-05-08T05:12:46;94591.22;;;10.90;100.00
55590;BME280;41452;42.780;23.116;2023-05-08T05:15:12;94561.25;;;10.68;100.00
55590;BME280;41452;42.780;23.116;2023-05-08T05:17:37;94587.34;;;11.04;100.00
55590;BME280;41452;42.780;23.116;2023-05-08T05:20:03;94585.22;;;11.25;100.00
55590;BME280;41452;42.780;23.116;2023-05-08T05:22:31;94563.75;;;11.28;100.00
55590;BME280;41452;42.780;23.116;2023-05-08T05:24:57;94562.69;;;11.41;100.00
55590;BME280;41452;42.780;23.116;2023-05-08T05:27:22;94580.41;;;11.69;100.00
55590;BME280;41452;42.780;23.116;2023-05-08T05:29:48;94585.41;;;11.83;100.00
55590;BME280;41452;42.780;23.116;2023-05-08T05:32:14;94584.03;;;11.92;100.00
55590;BME280;41452;42.780;23.116;2023-05-08T05:34:39;94578.19;;;12.02;100.00
55590;BME280;41452;42.780;23.116;2023-05-08T05:37:05;94581.41;;;11.92;98.59
55590;BME280;41452;42.780;23.116;2023-05-08T05:39:30;94582.06;;;11.99;100.00
55590;BME280;41452;42.780;23.116;2023-05-08T05:41:55;94591.34;;;11.90;99.64
55590;BME280;41452;42.780;23.116;2023-05-08T05:44:21;94583.88;;;12.10;99.02
55590;BME280;41452;42.780;23.116;2023-05-08T05:46:46;94566.16;;;12.06;100.00
55590;BME280;41452;42.780;23.116;2023-05-08T05:49:12;94556.81;;;11.98;99.30
55590;BME280;41452;42.780;23.116;2023-05-08T05:51:37;94561.41;;;12.20;98.33
55590;BME280;41452;42.780;23.116;2023-05-08T05:54:02;94569.94;;;12.39;99.12
55590;BME280;41452;42.780;23.116;2023-05-08T05:56:28;94564.88;;;12.49;98.74
55590;BME280;41452;42.780;23.116;2023-05-08T05:58:53;94579.06;;;12.65;96.14
55590;BME280;41452;42.780;23.116;2023-05-08T06:01:19;94571.19;;;12.65;96.10
55590;BME280;41452;42.780;23.116;2023-05-08T06:03:44;94551.34;;;12.45;94.16
55590;BME280;41452;42.780;23.116;2023-05-08T06:06:10;94574.13;;;12.51;94.35
55590;BME280;41452;42.780;23.116;2023-05-08T06:08:36;94548.91;;;12.27;92.40
55590;BME280;41452;42.780;23.116;2023-05-08T06:11:01;94571.72;;;12.50;94.05
55590;BME280;41452;42.780;23.116;2023-05-08T06:13:27;94554.47;;;12.42;95.51
55590;BME280;41452;42.780;23.116;2023-05-08T06:15:54;94527.81;;;12.39;96.51
55590;BME280;41452;42.780;23.116;2023-05-08T06:18:22;94545.84;;;12.47;95.88
55590;BME280;41452;42.780;23.116;2023-05-08T06:20:48;94579.56;;;12.62;92.31
55590;BME280;41452;42.780;23.116;2023-05-08T06:23:13;94577.03;;;12.67;93.54
55590;BME280;41452;42.780;23.116;2023-05-08T06:25:39;94583.84;;;12.80;92.95
55590;BME280;41452;42.780;23.116;2023-05-08T06:28:04;94574.16;;;12.85;93.38
55590;BME280;41452;42.780;23.116;2023-05-08T06:30:32;94575.44;;;13.00;93.33
55590;BME280;41452;42.780;23.116;2023-05-08T06:32:57;94577.06;;;13.01;96.49
55590;BME280;41452;42.780;23.116;2023-05-08T06:35:23;94586.47;;;12.97;92.46
55590;BME280;41452;42.780;23.116;2023-05-08T06:37:48;94571.25;;;12.70;91.31
55590;BME280;41452;42.780;23.116;2023-05-08T06:40:14;94588.06;;;12.98;90.91
55590;BME280;41452;42.780;23.116;2023-05-08T06:42:39;94587.69;;;13.06;90.56
55590;BME280;41452;42.780;23.116;2023-05-08T06:45:06;94579.91;;;13.16;88.55
55590;BME280;41452;42.780;23.116;2023-05-08T06:47:31;94589.44;;;13.34;88.67
55590;BME280;41452;42.780;23.116;2023-05-08T06:49:57;94578.00;;;13.28;90.74
55590;BME280;41452;42.780;23.116;2023-05-08T06:52:22;94573.97;;;13.38;90.50
55590;BME280;41452;42.780;23.116;2023-05-08T06:54:49;94593.06;;;13.45;88.98
55590;BME280;41452;42.780;23.116;2023-05-08T06:57:16;94586.25;;;13.49;88.92
55590;BME280;41452;42.780;23.116;2023-05-08T06:59:41;94596.06;;;13.54;86.66
55590;BME280;41452;42.780;23.116;2023-05-08T07:02:07;94578.19;;;13.39;86.42
55590;BME280;41452;42.780;23.116;2023-05-08T07:04:34;94585.78;;;13.52;85.34
55590;BME280;41452;42.780;23.116;2023-05-08T07:07:00;94589.28;;;13.41;87.22
55590;BME280;41452;42.780;23.116;2023-05-08T07:09:25;94591.38;;;13.56;86.69
55590;BME280;41452;42.780;23.116;2023-05-08T07:11:51;94554.84;;;13.47;90.34
55590;BME280;41452;42.780;23.116;2023-05-08T07:14:16;94586.03;;;13.73;88.73
55590;BME280;41452;42.780;23.116;2023-05-08T07:16:41;94582.16;;;13.58;90.78
55590;BME280;41452;42.780;23.116;2023-05-08T07:19:07;94588.75;;;13.78;89.71
55590;BME280;41452;42.780;23.116;2023-05-08T07:21:32;94577.66;;;13.76;89.36
55590;BME280;41452;42.780;23.116;2023-05-08T07:23:58;94575.06;;;13.81;90.33
55590;BME280;41452;42.780;23.116;2023-05-08T07:26:23;94590.19;;;14.07;88.52
55590;BME280;41452;42.780;23.116;2023-05-08T07:28:48;94590.63;;;14.21;89.04
55590;BME280;41452;42.780;23.116;2023-05-08T07:31:15;94595.88;;;14.43;89.32
55590;BME280;41452;42.780;23.116;2023-05-08T07:33:41;94590.66;;;14.49;91.53
55590;BME280;41452;42.780;23.116;2023-05-08T07:36:06;94587.91;;;14.60;87.42
55590;BME280;41452;42.780;23.116;2023-05-08T07:38:32;94596.50;;;14.73;83.56
55590;BME280;41452;42.780;23.116;2023-05-08T07:40:57;94594.88;;;14.72;84.75
55590;BME280;41452;42.780;23.116;2023-05-08T07:43:23;94600.66;;;14.96;86.16
55590;BME280;41452;42.780;23.116;2023-05-08T07:45:49;94581.59;;;14.94;86.49
55590;BME280;41452;42.780;23.116;2023-05-08T07:48:15;94598.22;;;15.21;92.29
55590;BME280;41452;42.780;23.116;2023-05-08T07:50:40;94596.19;;;15.34;86.84
55590;BME280;41452;42.780;23.116;2023-05-08T07:53:05;94555.34;;;15.19;87.88
55590;BME280;41452;42.780;23.116;2023-05-08T07:55:31;94568.91;;;15.28;85.65
55590;BME280;41452;42.780;23.116;2023-05-08T07:57:56;94593.16;;;15.52;85.82
55590;BME280;41452;42.780;23.116;2023-05-08T08:00:23;94586.34;;;15.62;88.84
55590;BME280;41452;42.780;23.116;2023-05-08T08:02:48;94588.78;;;15.73;88.77
55590;BME280;41452;42.780;23.116;2023-05-08T08:05:14;94578.28;;;15.84;85.70
55590;BME280;41452;42.780;23.116;2023-05-08T08:07:39;94582.31;;;15.96;88.54
55590;BME280;41452;42.780;23.116;2023-05-08T08:10:05;94576.78;;;16.03;87.34
55590;BME280;41452;42.780;23.116;2023-05-08T08:12:31;94578.19;;;16.21;89.39
55590;BME280;41452;42.780;23.116;2023-05-08T08:14:56;94561.78;;;16.24;89.83
55590;BME280;41452;42.780;23.116;2023-05-08T08:17:22;94578.22;;;16.31;86.27
55590;BME280;41452;42.780;23.116;2023-05-08T08:19:48;94554.34;;;16.26;84.66
55590;BME280;41452;42.780;23.116;2023-05-08T08:22:14;94571.91;;;16.48;86.10
55590;BME280;41452;42.780;23.116;2023-05-08T08:24:39;94575.63;;;16.52;87.05
55590;BME280;41452;42.780;23.116;2023-05-08T08:27:04;94552.81;;;16.46;87.83
55590;BME280;41452;42.780;23.116;2023-05-08T08:29:30;94541.69;;;16.49;86.73
55590;BME280;41452;42.780;23.116;2023-05-08T08:31:56;94563.97;;;16.58;85.99
55590;BME280;41452;42.780;23.116;2023-05-08T08:34:21;94546.22;;;16.59;85.68
55590;BME280;41452;42.780;23.116;2023-05-08T08:36:47;94558.16;;;16.66;84.69
55590;BME280;41452;42.780;23.116;2023-05-08T08:39:13;94546.50;;;16.67;81.84
55590;BME280;41452;42.780;23.116;2023-05-08T08:41:38;94537.44;;;16.53;85.27
55590;BME280;41452;42.780;23.116;2023-05-08T08:44:04;94548.09;;;16.68;85.92
55590;BME280;41452;42.780;23.116;2023-05-08T08:46:30;94539.84;;;16.75;85.97
55590;BME280;41452;42.780;23.116;2023-05-08T08:48:57;94526.88;;;16.79;84.31
55590;BME280;41452;42.780;23.116;2023-05-08T08:51:30;94531.91;;;16.65;85.71
55590;BME280;41452;42.780;23.116;2023-05-08T08:54:07;94529.00;;;16.82;85.48
55590;BME280;41452;42.780;23.116;2023-05-08T08:56:35;94517.91;;;16.85;84.79
55590;BME280;41452;42.780;23.116;2023-05-08T08:59:03;94495.06;;;16.63;84.74
55590;BME280;41452;42.780;23.116;2023-05-08T09:01:29;94492.69;;;16.72;83.92
55590;BME280;41452;42.780;23.116;2023-05-08T09:03:58;94506.78;;;16.88;86.36
55590;BME280;41452;42.780;23.116;2023-05-08T09:06:24;94499.84;;;16.87;88.81
55590;BME280;41452;42.780;23.116;2023-05-08T09:08:50;94503.03;;;16.89;86.08
55590;BME280;41452;42.780;23.116;2023-05-08T09:11:16;94514.16;;;16.81;86.42
55590;BME280;41452;42.780;23.116;2023-05-08T09:13:41;94543.88;;;16.98;87.10
55590;BME280;41452;42.780;23.116;2023-05-08T09:16:07;94510.41;;;16.71;87.36
55590;BME280;41452;42.780;23.116;2023-05-08T09:18:32;94527.94;;;16.78;85.58
55590;BME280;41452;42.780;23.116;2023-05-08T09:20:58;94540.13;;;16.79;85.68
55590;BME280;41452;42.780;23.116;2023-05-08T09:23:25;94548.13;;;16.89;85.14
55590;BME280;41452;42.780;23.116;2023-05-08T09:25:50;94534.03;;;16.78;86.98
55590;BME280;41452;42.780;23.116;2023-05-08T09:28:21;94545.75;;;16.92;86.08
55590;BME280;41452;42.780;23.116;2023-05-08T09:30:56;94540.97;;;16.95;86.10
55590;BME280;41452;42.780;23.116;2023-05-08T09:33:24;94540.16;;;16.89;83.51
55590;BME280;41452;42.780;23.116;2023-05-08T09:35:50;94526.91;;;16.84;84.65
55590;BME280;41452;42.780;23.116;2023-05-08T09:38:38;94530.63;;;17.03;87.96
55590;BME280;41452;42.780;23.116;2023-05-08T09:41:15;94522.13;;;17.06;88.42
55590;BME280;41452;42.780;23.116;2023-05-08T09:43:44;94516.31;;;17.04;85.95
55590;BME280;41452;42.780;23.116;2023-05-08T09:46:25;94510.75;;;17.11;86.25
55590;BME280;41452;42.780;23.116;2023-05-08T09:48:53;94516.81;;;17.32;87.15
55590;BME280;41452;42.780;23.116;2023-05-08T09:51:19;94517.59;;;17.33;86.61
55590;BME280;41452;42.780;23.116;2023-05-08T09:53:45;94505.16;;;17.02;85.34
55590;BME280;41452;42.780;23.116;2023-05-08T09:56:11;94522.66;;;17.34;86.92
55590;BME280;41452;42.780;23.116;2023-05-08T09:58:41;94523.69;;;17.43;85.70
55590;BME280;41452;42.780;23.116;2023-05-08T10:01:07;94514.91;;;17.53;87.39
55590;BME280;41452;42.780;23.116;2023-05-08T10:03:51;94518.31;;;17.64;84.53
55590;BME280;41452;42.780;23.116;2023-05-08T10:06:16;94498.41;;;17.61;85.65
55590;BME280;41452;42.780;23.116;2023-05-08T10:08:42;94510.84;;;17.76;81.28
55590;BME280;41452;42.780;23.116;2023-05-08T10:11:16;94502.31;;;17.84;81.45
55590;BME280;41452;42.780;23.116;2023-05-08T10:13:42;94486.94;;;17.81;78.49
55590;BME280;41452;42.780;23.116;2023-05-08T10:16:13;94474.16;;;17.83;77.35
55590;BME280;41452;42.780;23.116;2023-05-08T10:18:45;94477.56;;;18.04;81.90
55590;BME280;41452;42.780;23.116;2023-05-08T10:21:12;94488.38;;;18.23;80.05
55590;BME280;41452;42.780;23.116;2023-05-08T10:23:38;94495.69;;;18.42;78.41
55590;BME280;41452;42.780;23.116;2023-05-08T10:26:11;94494.59;;;18.48;77.25
55590;BME280;41452;42.780;23.116;2023-05-08T10:28:57;94497.75;;;18.55;76.43
55590;BME280;41452;42.780;23.116;2023-05-08T10:31:33;94485.94;;;18.67;75.67
55590;BME280;41452;42.780;23.116;2023-05-08T10:34:00;94489.84;;;18.79;76.75
55590;BME280;41452;42.780;23.116;2023-05-08T10:36:27;94491.13;;;18.92;74.45
55590;BME280;41452;42.780;23.116;2023-05-08T10:38:53;94493.44;;;18.99;72.67
55590;BME280;41452;42.780;23.116;2023-05-08T10:41:19;94477.16;;;19.06;73.68
55590;BME280;41452;42.780;23.116;2023-05-08T10:43:45;94485.28;;;19.19;72.71
55590;BME280;41452;42.780;23.116;2023-05-08T10:49:04;94476.81;;;19.42;67.68
55590;BME280;41452;42.780;23.116;2023-05-08T10:51:49;94465.81;;;19.48;69.99
55590;BME280;41452;42.780;23.116;2023-05-08T10:54:20;94455.34;;;19.57;70.31
55590;BME280;41452;42.780;23.116;2023-05-08T10:56:49;94461.69;;;19.61;68.26
55590;BME280;41452;42.780;23.116;2023-05-08T10:59:18;94450.19;;;19.66;66.93
55590;BME280;41452;42.780;23.116;2023-05-08T11:01:48;94430.56;;;19.81;70.55
55590;BME280;41452;42.780;23.116;2023-05-08T11:04:21;94444.94;;;19.85;68.33
55590;BME280;41452;42.780;23.116;2023-05-08T11:06:47;94444.56;;;19.91;71.00
55590;BME280;41452;42.780;23.116;2023-05-08T11:09:27;94435.59;;;20.06;69.24
55590;BME280;41452;42.780;23.116;2023-05-08T11:14:42;94418.78;;;19.87;66.98
55590;BME280;41452;42.780;23.116;2023-05-08T11:17:22;94427.97;;;20.19;66.22
55590;BME280;41452;42.780;23.116;2023-05-08T11:20:02;94422.78;;;20.27;67.02
55590;BME280;41452;42.780;23.116;2023-05-08T11:22:29;94425.16;;;20.29;62.19
55590;BME280;41452;42.780;23.116;2023-05-08T11:25:05;94415.94;;;20.02;66.17
55590;BME280;41452;42.780;23.116;2023-05-08T11:30:34;94413.97;;;20.27;64.95
55590;BME280;41452;42.780;23.116;2023-05-08T11:35:48;94407.69;;;20.56;61.85
55590;BME280;41452;42.780;23.116;2023-05-08T11:40:49;94403.13;;;20.75;64.19
55590;BME280;41452;42.780;23.116;2023-05-08T11:46:07;94381.41;;;20.96;60.59
55590;BME280;41452;42.780;23.116;2023-05-08T11:48:38;94391.31;;;21.09;64.19
55590;BME280;41452;42.780;23.116;2023-05-08T11:51:04;94399.56;;;20.80;62.11
55590;BME280;41452;42.780;23.116;2023-05-08T11:53:29;94363.31;;;20.79;63.27
55590;BME280;41452;42.780;23.116;2023-05-08T11:55:56;94377.03;;;20.72;61.02
55590;BME280;41452;42.780;23.116;2023-05-08T11:58:21;94396.03;;;20.84;59.98
55590;BME280;41452;42.780;23.116;2023-05-08T12:00:47;94398.78;;;20.79;61.34
55590;BME280;41452;42.780;23.116;2023-05-08T12:03:15;94385.56;;;20.88;62.00
55590;BME280;41452;42.780;23.116;2023-05-08T12:05:41;94365.72;;;20.61;58.86
55590;BME280;41452;42.780;23.116;2023-05-08T12:08:07;94378.28;;;20.75;59.51
55590;BME280;41452;42.780;23.116;2023-05-08T12:13:29;94386.16;;;20.99;60.11
55590;BME280;41452;42.780;23.116;2023-05-08T12:15:59;94380.34;;;20.97;59.67
55590;BME280;41452;42.780;23.116;2023-05-08T12:18:26;94368.16;;;20.91;60.87
55590;BME280;41452;42.780;23.116;2023-05-08T12:20:59;94379.06;;;21.08;59.51
55590;BME280;41452;42.780;23.116;2023-05-08T12:23:25;94388.75;;;21.18;58.88
55590;BME280;41452;42.780;23.116;2023-05-08T12:25:51;94369.84;;;20.86;60.48
55590;BME280;41452;42.780;23.116;2023-05-08T12:28:20;94361.22;;;20.76;57.52
55590;BME280;41452;42.780;23.116;2023-05-08T12:30:46;94371.91;;;20.89;61.52
55590;BME280;41452;42.780;23.116;2023-05-08T12:33:13;94364.56;;;20.81;62.38
55590;BME280;41452;42.780;23.116;2023-05-08T12:35:39;94378.25;;;20.94;63.58
55590;BME280;41452;42.780;23.116;2023-05-08T12:38:06;94375.75;;;20.83;64.29
55590;BME280;41452;42.780;23.116;2023-05-08T12:43:06;94355.28;;;20.79;65.02
55590;BME280;41452;42.780;23.116;2023-05-08T12:45:34;94373.41;;;20.96;65.93
55590;BME280;41452;42.780;23.116;2023-05-08T12:48:08;94355.28;;;20.93;64.02
55590;BME280;41452;42.780;23.116;2023-05-08T12:50:39;94357.09;;;20.97;64.09
55590;BME280;41452;42.780;23.116;2023-05-08T12:55:32;94366.47;;;20.81;64.40
55590;BME280;41452;42.780;23.116;2023-05-08T12:58:02;94377.69;;;20.64;65.75
55590;BME280;41452;42.780;23.116;2023-05-08T13:00:38;94375.75;;;20.50;67.43
55590;BME280;41452;42.780;23.116;2023-05-08T13:03:05;94371.94;;;20.38;66.35
55590;BME280;41452;42.780;23.116;2023-05-08T13:05:31;94368.81;;;20.17;66.65
55590;BME280;41452;42.780;23.116;2023-05-08T13:07:59;94382.34;;;20.20;68.19
55590;BME280;41452;42.780;23.116;2023-05-08T13:10:25;94357.06;;;19.99;67.38
55590;BME280;41452;42.780;23.116;2023-05-08T13:12:50;94389.13;;;19.93;68.10
55590;BME280;41452;42.780;23.116;2023-05-08T13:15:16;94388.69;;;19.86;68.82
55590;BME280;41452;42.780;23.116;2023-05-08T13:17:41;94402.22;;;19.66;70.24
55590;BME280;41452;42.780;23.116;2023-05-08T13:20:07;94396.97;;;19.61;70.44
55590;BME280;41452;42.780;23.116;2023-05-08T13:22:33;94393.53;;;19.36;71.38
55590;BME280;41452;42.780;23.116;2023-05-08T13:24:58;94400.78;;;19.30;71.47
55590;BME280;41452;42.780;23.116;2023-05-08T13:27:24;94410.41;;;19.26;72.25
55590;BME280;41452;42.780;23.116;2023-05-08T13:29:49;94412.34;;;19.21;72.09
55590;BME280;41452;42.780;23.116;2023-05-08T13:32:15;94387.56;;;18.96;73.05
55590;BME280;41452;42.780;23.116;2023-05-08T13:34:40;94420.28;;;18.96;72.54
55590;BME280;41452;42.780;23.116;2023-05-08T13:37:05;94409.97;;;18.90;72.70